sensor_id;sensor_type;location;lat;lon;timestamp;P1;durP1;ratioP1;P2;durP2;ratioP2
82352;SDS011;71954;47.430;18.920;2024-01-10T00:02:21;22.35;;;10.57;;
82352;SDS011;71954;47.430;18.920;2024-01-10T00:04:48;33.30;;;14.63;;
82352;SDS011;71954;47.430;18.920;2024-01-10T00:07:15;31.83;;;12.48;;
82352;SDS011;71954;47.430;18.920;2024-01-10T00:09:41;34.42;;;13.73;;
82352;SDS011;71954;47.430;18.920;2024-01-10T00:12:08;36.30;;;14.77;;
82352;SDS011;71954;47.430;18.920;2024-01-10T00:14:35;30.38;;;13.57;;
82352;SDS011;71954;47.430;18.920;2024-01-10T00:17:01;27.75;;;12.48;;
82352;SDS011;71954;47.430;18.920;2024-01-10T00:19:28;30.85;;;12.88;;
82352;SDS011;71954;47.430;18.920;2024-01-10T00:21:55;26.20;;;11.05;;
82352;SDS011;71954;47.430;18.920;2024-01-10T00:24:21;23.40;;;10.10;;
82352;SDS011;71954;47.430;18.920;2024-01-10T00:26:48;21.88;;;8.77;;
82352;SDS011;71954;47.430;18.920;2024-01-10T00:29:15;20.33;;;9.35;;
82352;SDS011;71954;47.430;18.920;2024-01-10T00:31:42;20.75;;;8.77;;
82352;SDS011;71954;47.430;18.920;2024-01-10T00:34:08;17.38;;;8.80;;
82352;SDS011;71954;47.430;18.920;2024-01-10T00:36:35;16.20;;;7.63;;
82352;SDS011;71954;47.430;18.920;2024-01-10T00:39:02;17.17;;;7.47;;
82352;SDS011;71954;47.430;18.920;2024-01-10T00:41:28;14.30;;;6.80;;
82352;SDS011;71954;47.430;18.920;2024-01-10T00:43:55;18.70;;;7.15;;
82352;SDS011;71954;47.430;18.920;2024-01-10T00:46:21;14.10;;;6.22;;
82352;SDS011;71954;47.430;18.920;2024-01-10T00:48:48;14.90;;;5.82;;
82352;SDS011;71954;47.430;18.920;2024-01-10T00:51:15;12.35;;;6.30;;
82352;SDS011;71954;47.430;18.920;2024-01-10T00:53:41;14.77;;;5.85;;
82352;SDS011;71954;47.430;18.920;2024-01-10T00:56:08;18.05;;;6.22;;
82352;SDS011;71954;47.430;18.920;2024-01-10T00:58:35;16.17;;;6.15;;
82352;SDS011;71954;47.430;18.920;2024-01-10T01:01:02;14.68;;;6.55;;
82352;SDS011;71954;47.430;18.920;2024-01-10T01:03:29;15.45;;;6.40;;
82352;SDS011;71954;47.430;18.920;2024-01-10T01:05:55;15.32;;;6.63;;
82352;SDS011;71954;47.430;18.920;2024-01-10T01:08:22;15.32;;;6.97;;
82352;SDS011;71954;47.430;18.920;2024-01-10T01:10:49;15.13;;;6.90;;
82352;SDS011;71954;47.430;18.920;2024-01-10T01:13:15;18.23;;;6.75;;
82352;SDS011;71954;47.430;18.920;2024-01-10T01:15:42;16.85;;;6.95;;
82352;SDS011;71954;47.430;18.920;2024-01-10T01:18:09;16.10;;;7.45;;
82352;SDS011;71954;47.430;18.920;2024-01-10T01:20:39;12.80;;;6.07;;
82352;SDS011;71954;47.430;18.920;2024-01-10T01:23:05;12.35;;;5.80;;
82352;SDS011;71954;47.430;18.920;2024-01-10T01:25:32;14.65;;;5.85;;
82352;SDS011;71954;47.430;18.920;2024-01-10T01:27:58;12.07;;;5.35;;
82352;SDS011;71954;47.430;18.920;2024-01-10T01:30:25;15.07;;;5.82;;
82352;SDS011;71954;47.430;18.920;2024-01-10T01:32:52;12.32;;;5.28;;
82352;SDS011;71954;47.430;18.920;2024-01-10T01:35:19;15.05;;;5.65;;
82352;SDS011;71954;47.430;18.920;2024-01-10T01:37:49;11.35;;;4.72;;
82352;SDS011;71954;47.430;18.920;2024-01-10T01:40:17;12.77;;;4.88;;
82352;SDS011;71954;47.430;18.920;2024-01-10T01:42:45;10.07;;;4.78;;
82352;SDS011;71954;47.430;18.920;2024-01-10T01:45:12;8.45;;;4.50;;
82352;SDS011;71954;47.430;18.920;2024-01-10T01:47:39;14.95;;;4.95;;
82352;SDS011;71954;47.430;18.920;2024-01-10T01:52:34;11.02;;;4.22;;
82352;SDS011;71954;47.430;18.920;2024-01-10T01:55:04;9.77;;;4.57;;
82352;SDS011;71954;47.430;18.920;2024-01-10T01:57:33;9.30;;;4.53;;
82352;SDS011;71954;47.430;18.920;2024-01-10T02:00:00;10.40;;;4.60;;
82352;SDS011;71954;47.430;18.920;2024-01-10T02:02:27;10.75;;;4.45;;
82352;SDS011;71954;47.430;18.920;2024-01-10T02:04:56;9.20;;;3.63;;
82352;SDS011;71954;47.430;18.920;2024-01-10T02:07:24;11.77;;;4.55;;
82352;SDS011;71954;47.430;18.920;2024-01-10T02:09:52;9.52;;;4.30;;
82352;SDS011;71954;47.430;18.920;2024-01-10T02:12:19;8.98;;;4.18;;
82352;SDS011;71954;47.430;18.920;2024-01-10T02:14:46;10.43;;;4.47;;
82352;SDS011;71954;47.430;18.920;2024-01-10T02:17:12;14.20;;;4.53;;
82352;SDS011;71954;47.430;18.920;2024-01-10T02:19:40;9.82;;;4.20;;
82352;SDS011;71954;47.430;18.920;2024-01-10T02:22:06;8.73;;;3.97;;
82352;SDS011;71954;47.430;18.920;2024-01-10T02:24:33;8.98;;;3.45;;
82352;SDS011;71954;47.430;18.920;2024-01-10T02:27:00;10.00;;;3.85;;
82352;SDS011;71954;47.430;18.920;2024-01-10T02:29:27;9.45;;;3.67;;
82352;SDS011;71954;47.430;18.920;2024-01-10T02:31:53;7.97;;;3.60;;
82352;SDS011;71954;47.430;18.920;2024-01-10T02:34:20;8.18;;;3.28;;
82352;SDS011;71954;47.430;18.920;2024-01-10T02:36:47;6.22;;;2.78;;
82352;SDS011;71954;47.430;18.920;2024-01-10T02:39:13;9.52;;;3.75;;
82352;SDS011;71954;47.430;18.920;2024-01-10T02:41:40;7.05;;;3.05;;
82352;SDS011;71954;47.430;18.920;2024-01-10T02:44:07;5.93;;;3.25;;
82352;SDS011;71954;47.430;18.920;2024-01-10T02:46:33;7.35;;;3.55;;
82352;SDS011;71954;47.430;18.920;2024-01-10T02:49:00;10.63;;;4.03;;
82352;SDS011;71954;47.430;18.920;2024-01-10T02:51:27;11.55;;;3.90;;
82352;SDS011;71954;47.430;18.920;2024-01-10T02:53:54;8.52;;;3.35;;
82352;SDS011;71954;47.430;18.920;2024-01-10T02:56:21;8.32;;;3.38;;
82352;SDS011;71954;47.430;18.920;2024-01-10T02:58:48;7.80;;;3.00;;
82352;SDS011;71954;47.430;18.920;2024-01-10T03:01:14;9.35;;;3.08;;
82352;SDS011;71954;47.430;18.920;2024-01-10T03:03:41;6.65;;;2.95;;
82352;SDS011;71954;47.430;18.920;2024-01-10T03:06:08;6.10;;;2.90;;
82352;SDS011;71954;47.430;18.920;2024-01-10T03:08:35;7.93;;;3.47;;
82352;SDS011;71954;47.430;18.920;2024-01-10T03:11:02;8.25;;;2.95;;
82352;SDS011;71954;47.430;18.920;2024-01-10T03:13:29;6.93;;;2.72;;
82352;SDS011;71954;47.430;18.920;2024-01-10T03:15:55;7.82;;;3.53;;
82352;SDS011;71954;47.430;18.920;2024-01-10T03:18:23;7.53;;;2.83;;
82352;SDS011;71954;47.430;18.920;2024-01-10T03:20:50;6.25;;;3.08;;
82352;SDS011;71954;47.430;18.920;2024-01-10T03:23:16;8.68;;;3.25;;
82352;SDS011;71954;47.430;18.920;2024-01-10T03:25:43;8.18;;;2.78;;
82352;SDS011;71954;47.430;18.920;2024-01-10T03:28:10;8.15;;;2.80;;
82352;SDS011;71954;47.430;18.920;2024-01-10T03:30:36;7.18;;;3.03;;
82352;SDS011;71954;47.430;18.920;2024-01-10T03:33:03;8.55;;;3.85;;
82352;SDS011;71954;47.430;18.920;2024-01-10T03:35:30;7.47;;;3.78;;
82352;SDS011;71954;47.430;18.920;2024-01-10T03:37:57;7.28;;;2.92;;
82352;SDS011;71954;47.430;18.920;2024-01-10T03:40:23;6.00;;;2.78;;
82352;SDS011;71954;47.430;18.920;2024-01-10T03:42:50;7.07;;;2.90;;
82352;SDS011;71954;47.430;18.920;2024-01-10T03:45:17;6.25;;;2.78;;
82352;SDS011;71954;47.430;18.920;2024-01-10T03:47:47;7.68;;;3.42;;
82352;SDS011;71954;47.430;18.920;2024-01-10T03:50:17;6.43;;;2.67;;
82352;SDS011;71954;47.430;18.920;2024-01-10T03:52:45;9.80;;;3.13;;
82352;SDS011;71954;47.430;18.920;2024-01-10T03:55:13;6.53;;;3.08;;
82352;SDS011;71954;47.430;18.920;2024-01-10T03:57:39;8.35;;;3.58;;
82352;SDS011;71954;47.430;18.920;2024-01-10T04:00:06;9.82;;;2.75;;
82352;SDS011;71954;47.430;18.920;2024-01-10T04:02:33;5.85;;;2.80;;
82352;SDS011;71954;47.430;18.920;2024-01-10T04:05:00;7.03;;;3.30;;
82352;SDS011;71954;47.430;18.920;2024-01-10T04:07:27;8.93;;;3.45;;
82352;SDS011;71954;47.430;18.920;2024-01-10T04:09:54;8.23;;;3.08;;
82352;SDS011;71954;47.430;18.920;2024-01-10T04:12:20;6.80;;;2.50;;
82352;SDS011;71954;47.430;18.920;2024-01-10T04:14:47;8.23;;;2.72;;
82352;SDS011;71954;47.430;18.920;2024-01-10T04:17:14;8.60;;;3.10;;
82352;SDS011;71954;47.430;18.920;2024-01-10T04:19:40;5.00;;;2.33;;
82352;SDS011;71954;47.430;18.920;2024-01-10T04:22:07;6.75;;;2.88;;
82352;SDS011;71954;47.430;18.920;2024-01-10T04:24:34;6.93;;;2.65;;
82352;SDS011;71954;47.430;18.920;2024-01-10T04:27:00;7.45;;;3.03;;
82352;SDS011;71954;47.430;18.920;2024-01-10T04:29:27;7.75;;;2.95;;
82352;SDS011;71954;47.430;18.920;2024-01-10T04:31:54;7.50;;;2.70;;
82352;SDS011;71954;47.430;18.920;2024-01-10T04:34:20;7.68;;;2.65;;
82352;SDS011;71954;47.430;18.920;2024-01-10T04:36:49;4.97;;;2.72;;
82352;SDS011;71954;47.430;18.920;2024-01-10T04:39:15;7.65;;;2.63;;
82352;SDS011;71954;47.430;18.920;2024-01-10T04:41:42;8.05;;;2.47;;
82352;SDS011;71954;47.430;18.920;2024-01-10T04:44:09;7.65;;;3.20;;
82352;SDS011;71954;47.430;18.920;2024-01-10T04:46:35;6.72;;;2.90;;
82352;SDS011;71954;47.430;18.920;2024-01-10T04:49:02;9.85;;;3.22;;
82352;SDS011;71954;47.430;18.920;2024-01-10T04:51:28;8.38;;;3.22;;
82352;SDS011;71954;47.430;18.920;2024-01-10T04:53:55;7.55;;;3.17;;
82352;SDS011;71954;47.430;18.920;2024-01-10T04:56:22;6.13;;;2.85;;
82352;SDS011;71954;47.430;18.920;2024-01-10T04:58:48;9.77;;;3.47;;
82352;SDS011;71954;47.430;18.920;2024-01-10T05:01:15;6.53;;;3.03;;
82352;SDS011;71954;47.430;18.920;2024-01-10T05:03:42;6.25;;;2.60;;
82352;SDS011;71954;47.430;18.920;2024-01-10T05:06:08;5.43;;;2.13;;
82352;SDS011;71954;47.430;18.920;2024-01-10T05:08:35;5.47;;;2.67;;
82352;SDS011;71954;47.430;18.920;2024-01-10T05:11:02;7.78;;;3.08;;
82352;SDS011;71954;47.430;18.920;2024-01-10T05:13:29;5.88;;;2.72;;
82352;SDS011;71954;47.430;18.920;2024-01-10T05:15:55;6.68;;;2.60;;
82352;SDS011;71954;47.430;18.920;2024-01-10T05:18:22;7.43;;;2.80;;
82352;SDS011;71954;47.430;18.920;2024-01-10T05:20:49;7.38;;;2.50;;
82352;SDS011;71954;47.430;18.920;2024-01-10T05:23:16;7.22;;;2.65;;
82352;SDS011;71954;47.430;18.920;2024-01-10T05:25:43;5.45;;;2.65;;
82352;SDS011;71954;47.430;18.920;2024-01-10T05:28:09;6.63;;;2.70;;
82352;SDS011;71954;47.430;18.920;2024-01-10T05:30:36;6.75;;;2.22;;
82352;SDS011;71954;47.430;18.920;2024-01-10T05:33:03;8.07;;;2.60;;
82352;SDS011;71954;47.430;18.920;2024-01-10T05:35:30;9.05;;;3.55;;
82352;SDS011;71954;47.430;18.920;2024-01-10T05:37:57;6.45;;;2.67;;
82352;SDS011;71954;47.430;18.920;2024-01-10T05:40:23;7.03;;;2.95;;
82352;SDS011;71954;47.430;18.920;2024-01-10T05:42:50;5.78;;;2.72;;
82352;SDS011;71954;47.430;18.920;2024-01-10T05:45:16;10.95;;;3.00;;
82352;SDS011;71954;47.430;18.920;2024-01-10T05:47:44;8.73;;;2.58;;
82352;SDS011;71954;47.430;18.920;2024-01-10T05:50:11;7.70;;;3.13;;
82352;SDS011;71954;47.430;18.920;2024-01-10T05:52:37;8.52;;;4.03;;
82352;SDS011;71954;47.430;18.920;2024-01-10T05:55:04;9.63;;;4.00;;
82352;SDS011;71954;47.430;18.920;2024-01-10T05:57:32;5.97;;;3.03;;
82352;SDS011;71954;47.430;18.920;2024-01-10T05:59:59;8.13;;;2.97;;
82352;SDS011;71954;47.430;18.920;2024-01-10T06:02:26;9.07;;;3.13;;
82352;SDS011;71954;47.430;18.920;2024-01-10T06:04:53;7.05;;;2.83;;
82352;SDS011;71954;47.430;18.920;2024-01-10T06:07:20;7.45;;;3.00;;
82352;SDS011;71954;47.430;18.920;2024-01-10T06:09:49;6.70;;;3.08;;
82352;SDS011;71954;47.430;18.920;2024-01-10T06:12:16;7.90;;;2.38;;
82352;SDS011;71954;47.430;18.920;2024-01-10T06:14:42;6.38;;;2.60;;
82352;SDS011;71954;47.430;18.920;2024-01-10T06:17:09;5.60;;;2.53;;
82352;SDS011;71954;47.430;18.920;2024-01-10T06:19:35;6.82;;;3.17;;
82352;SDS011;71954;47.430;18.920;2024-01-10T06:22:02;9.52;;;3.53;;
82352;SDS011;71954;47.430;18.920;2024-01-10T06:24:29;10.02;;;3.53;;
82352;SDS011;71954;47.430;18.920;2024-01-10T06:26:56;7.78;;;3.13;;
82352;SDS011;71954;47.430;18.920;2024-01-10T06:29:22;8.20;;;3.33;;
82352;SDS011;71954;47.430;18.920;2024-01-10T06:31:49;7.85;;;3.10;;
82352;SDS011;71954;47.430;18.920;2024-01-10T06:34:16;7.35;;;2.30;;
82352;SDS011;71954;47.430;18.920;2024-01-10T06:36:43;4.18;;;2.05;;
82352;SDS011;71954;47.430;18.920;2024-01-10T06:39:09;4.07;;;2.05;;
82352;SDS011;71954;47.430;18.920;2024-01-10T06:41:39;5.47;;;2.20;;
82352;SDS011;71954;47.430;18.920;2024-01-10T06:44:06;7.38;;;2.63;;
82352;SDS011;71954;47.430;18.920;2024-01-10T06:46:33;6.45;;;2.35;;
82352;SDS011;71954;47.430;18.920;2024-01-10T06:49:00;6.35;;;2.15;;
82352;SDS011;71954;47.430;18.920;2024-01-10T06:51:28;10.15;;;3.05;;
82352;SDS011;71954;47.430;18.920;2024-01-10T06:53:55;6.95;;;2.22;;
82352;SDS011;71954;47.430;18.920;2024-01-10T06:56:29;4.30;;;1.70;;
82352;SDS011;71954;47.430;18.920;2024-01-10T06:58:57;4.95;;;1.92;;
82352;SDS011;71954;47.430;18.920;2024-01-10T07:01:24;5.45;;;2.08;;
82352;SDS011;71954;47.430;18.920;2024-01-10T07:03:51;4.30;;;1.75;;
82352;SDS011;71954;47.430;18.920;2024-01-10T07:06:18;6.05;;;2.67;;
82352;SDS011;71954;47.430;18.920;2024-01-10T07:08:45;5.03;;;2.35;;
82352;SDS011;71954;47.430;18.920;2024-01-10T07:11:14;7.60;;;2.53;;
82352;SDS011;71954;47.430;18.920;2024-01-10T07:13:41;5.85;;;2.10;;
82352;SDS011;71954;47.430;18.920;2024-01-10T07:16:08;7.38;;;2.13;;
82352;SDS011;71954;47.430;18.920;2024-01-10T07:18:36;6.68;;;2.45;;
82352;SDS011;71954;47.430;18.920;2024-01-10T07:21:03;8.10;;;2.15;;
82352;SDS011;71954;47.430;18.920;2024-01-10T07:23:29;6.95;;;2.25;;
82352;SDS011;71954;47.430;18.920;2024-01-10T07:25:58;4.65;;;2.10;;
82352;SDS011;71954;47.430;18.920;2024-01-10T07:28:24;6.80;;;3.00;;
82352;SDS011;71954;47.430;18.920;2024-01-10T07:30:51;11.07;;;2.75;;
82352;SDS011;71954;47.430;18.920;2024-01-10T07:33:18;6.60;;;2.33;;
82352;SDS011;71954;47.430;18.920;2024-01-10T07:35:45;8.40;;;2.53;;
82352;SDS011;71954;47.430;18.920;2024-01-10T07:38:11;5.85;;;2.83;;
82352;SDS011;71954;47.430;18.920;2024-01-10T07:40:38;7.07;;;3.17;;
82352;SDS011;71954;47.430;18.920;2024-01-10T07:43:05;6.45;;;3.00;;
82352;SDS011;71954;47.430;18.920;2024-01-10T07:45:31;8.90;;;2.55;;
82352;SDS011;71954;47.430;18.920;2024-01-10T07:50:26;7.03;;;2.25;;
82352;SDS011;71954;47.430;18.920;2024-01-10T07:52:54;7.25;;;2.35;;
82352;SDS011;71954;47.430;18.920;2024-01-10T07:55:21;7.53;;;2.17;;
82352;SDS011;71954;47.430;18.920;2024-01-10T07:57:48;6.95;;;2.58;;
82352;SDS011;71954;47.430;18.920;2024-01-10T08:00:14;7.55;;;2.95;;
82352;SDS011;71954;47.430;18.920;2024-01-10T08:02:42;7.85;;;3.00;;
82352;SDS011;71954;47.430;18.920;2024-01-10T08:05:08;6.53;;;3.10;;
82352;SDS011;71954;47.430;18.920;2024-01-10T08:07:35;6.78;;;2.75;;
82352;SDS011;71954;47.430;18.920;2024-01-10T08:10:06;8.55;;;3.35;;
82352;SDS011;71954;47.430;18.920;2024-01-10T08:12:36;8.25;;;3.38;;
82352;SDS011;71954;47.430;18.920;2024-01-10T08:15:04;10.00;;;4.63;;
82352;SDS011;71954;47.430;18.920;2024-01-10T08:17:32;11.35;;;5.70;;
82352;SDS011;71954;47.430;18.920;2024-01-10T08:19:59;17.55;;;7.88;;
82352;SDS011;71954;47.430;18.920;2024-01-10T08:22:30;21.42;;;8.63;;
82352;SDS011;71954;47.430;18.920;2024-01-10T08:24:57;18.70;;;9.15;;
82352;SDS011;71954;47.430;18.920;2024-01-10T08:27:23;20.25;;;8.30;;
82352;SDS011;71954;47.430;18.920;2024-01-10T08:29:50;21.83;;;8.45;;
82352;SDS011;71954;47.430;18.920;2024-01-10T08:32:17;19.60;;;6.75;;
82352;SDS011;71954;47.430;18.920;2024-01-10T08:34:44;15.95;;;6.07;;
82352;SDS011;71954;47.430;18.920;2024-01-10T08:37:11;11.70;;;5.47;;
82352;SDS011;71954;47.430;18.920;2024-01-10T08:39:38;9.82;;;5.15;;
82352;SDS011;71954;47.430;18.920;2024-01-10T08:42:04;10.25;;;4.93;;
82352;SDS011;71954;47.430;18.920;2024-01-10T08:44:31;13.00;;;5.50;;
82352;SDS011;71954;47.430;18.920;2024-01-10T08:46:57;14.27;;;6.53;;
82352;SDS011;71954;47.430;18.920;2024-01-10T08:49:24;20.60;;;7.38;;
82352;SDS011;71954;47.430;18.920;2024-01-10T08:51:53;17.70;;;7.20;;
82352;SDS011;71954;47.430;18.920;2024-01-10T08:54:19;15.93;;;6.50;;
82352;SDS011;71954;47.430;18.920;2024-01-10T08:56:48;11.85;;;5.72;;
82352;SDS011;71954;47.430;18.920;2024-01-10T08:59:15;15.32;;;6.05;;
82352;SDS011;71954;47.430;18.920;2024-01-10T09:01:41;12.05;;;4.93;;
82352;SDS011;71954;47.430;18.920;2024-01-10T09:04:09;9.93;;;4.97;;
82352;SDS011;71954;47.430;18.920;2024-01-10T09:06:36;12.50;;;4.95;;
82352;SDS011;71954;47.430;18.920;2024-01-10T09:09:02;9.63;;;5.18;;
82352;SDS011;71954;47.430;18.920;2024-01-10T09:11:29;11.32;;;5.18;;
82352;SDS011;71954;47.430;18.920;2024-01-10T09:13:56;14.35;;;5.32;;
82352;SDS011;71954;47.430;18.920;2024-01-10T09:16:22;13.93;;;5.47;;
82352;SDS011;71954;47.430;18.920;2024-01-10T09:18:49;12.18;;;5.35;;
82352;SDS011;71954;47.430;18.920;2024-01-10T09:21:20;12.23;;;6.07;;
82352;SDS011;71954;47.430;18.920;2024-01-10T09:23:47;14.82;;;5.63;;
82352;SDS011;71954;47.430;18.920;2024-01-10T09:26:17;13.75;;;5.72;;
82352;SDS011;71954;47.430;18.920;2024-01-10T09:28:44;15.35;;;5.90;;
82352;SDS011;71954;47.430;18.920;2024-01-10T09:31:11;15.80;;;6.10;;
82352;SDS011;71954;47.430;18.920;2024-01-10T09:33:38;16.38;;;7.18;;
82352;SDS011;71954;47.430;18.920;2024-01-10T09:36:05;17.52;;;6.70;;
82352;SDS011;71954;47.430;18.920;2024-01-10T09:38:35;16.30;;;7.13;;
82352;SDS011;71954;47.430;18.920;2024-01-10T09:41:03;13.13;;;6.38;;
82352;SDS011;71954;47.430;18.920;2024-01-10T09:43:31;14.85;;;6.68;;
82352;SDS011;71954;47.430;18.920;2024-01-10T09:46:01;13.68;;;7.00;;
82352;SDS011;71954;47.430;18.920;2024-01-10T09:48:31;19.38;;;6.85;;
82352;SDS011;71954;47.430;18.920;2024-01-10T09:53:26;13.30;;;5.97;;
82352;SDS011;71954;47.430;18.920;2024-01-10T09:55:53;15.45;;;6.03;;
82352;SDS011;71954;47.430;18.920;2024-01-10T09:58:23;13.60;;;5.80;;
82352;SDS011;71954;47.430;18.920;2024-01-10T10:00:53;11.30;;;5.50;;
82352;SDS011;71954;47.430;18.920;2024-01-10T10:03:20;16.20;;;6.97;;
82352;SDS011;71954;47.430;18.920;2024-01-10T10:05:46;12.95;;;6.03;;
82352;SDS011;71954;47.430;18.920;2024-01-10T10:08:14;13.10;;;6.00;;
82352;SDS011;71954;47.430;18.920;2024-01-10T10:10:41;14.10;;;5.78;;
82352;SDS011;71954;47.430;18.920;2024-01-10T10:13:23;13.43;;;5.90;;
82352;SDS011;71954;47.430;18.920;2024-01-10T10:15:58;10.77;;;5.43;;
82352;SDS011;71954;47.430;18.920;2024-01-10T10:18:28;11.00;;;5.50;;
82352;SDS011;71954;47.430;18.920;2024-01-10T10:21:09;10.63;;;5.43;;
82352;SDS011;71954;47.430;18.920;2024-01-10T10:23:37;11.98;;;5.18;;
82352;SDS011;71954;47.430;18.920;2024-01-10T10:26:14;11.23;;;5.50;;
82352;SDS011;71954;47.430;18.920;2024-01-10T10:28:48;11.20;;;5.60;;
82352;SDS011;71954;47.430;18.920;2024-01-10T10:31:16;11.00;;;5.88;;
82352;SDS011;71954;47.430;18.920;2024-01-10T10:33:44;12.82;;;5.80;;
82352;SDS011;71954;47.430;18.920;2024-01-10T10:36:13;16.25;;;6.97;;
82352;SDS011;71954;47.430;18.920;2024-01-10T10:38:40;12.45;;;5.65;;
82352;SDS011;71954;47.430;18.920;2024-01-10T10:41:07;17.63;;;6.05;;
82352;SDS011;71954;47.430;18.920;2024-01-10T10:43:37;11.90;;;5.57;;
82352;SDS011;71954;47.430;18.920;2024-01-10T10:46:09;10.93;;;5.25;;
82352;SDS011;71954;47.430;18.920;2024-01-10T10:48:38;11.68;;;5.75;;
82352;SDS011;71954;47.430;18.920;2024-01-10T10:51:08;12.60;;;5.72;;
82352;SDS011;71954;47.430;18.920;2024-01-10T10:53:42;14.38;;;6.13;;
82352;SDS011;71954;47.430;18.920;2024-01-10T10:56:12;14.50;;;7.53;;
82352;SDS011;71954;47.430;18.920;2024-01-10T10:58:39;14.98;;;6.82;;
82352;SDS011;71954;47.430;18.920;2024-01-10T11:01:11;15.07;;;6.82;;
82352;SDS011;71954;47.430;18.920;2024-01-10T11:03:39;12.55;;;7.32;;
82352;SDS011;71954;47.430;18.920;2024-01-10T11:06:08;19.25;;;7.95;;
82352;SDS011;71954;47.430;18.920;2024-01-10T11:08:40;16.10;;;7.60;;
82352;SDS011;71954;47.430;18.920;2024-01-10T11:11:14;18.05;;;8.00;;
82352;SDS011;71954;47.430;18.920;2024-01-10T11:22:13;14.18;;;6.78;;
82352;SDS011;71954;47.430;18.920;2024-01-10T11:24:44;16.58;;;7.15;;
82352;SDS011;71954;47.430;18.920;2024-01-10T11:27:12;14.90;;;7.03;;
82352;SDS011;71954;47.430;18.920;2024-01-10T11:29:40;13.63;;;6.72;;
82352;SDS011;71954;47.430;18.920;2024-01-10T11:32:14;17.48;;;7.57;;
82352;SDS011;71954;47.430;18.920;2024-01-10T11:35:28;16.70;;;7.78;;
82352;SDS011;71954;47.430;18.920;2024-01-10T11:37:45;17.23;;;7.70;;
82352;SDS011;71954;47.430;18.920;2024-01-10T11:40:14;18.60;;;8.88;;
82352;SDS011;71954;47.430;18.920;2024-01-10T11:42:42;21.83;;;9.15;;
82352;SDS011;71954;47.430;18.920;2024-01-10T11:45:09;20.40;;;9.35;;
82352;SDS011;71954;47.430;18.920;2024-01-10T11:47:39;21.70;;;9.55;;
82352;SDS011;71954;47.430;18.920;2024-01-10T11:50:07;21.00;;;9.82;;
82352;SDS011;71954;47.430;18.920;2024-01-10T11:52:36;18.75;;;9.45;;
82352;SDS011;71954;47.430;18.920;2024-01-10T11:55:03;23.75;;;9.95;;
82352;SDS011;71954;47.430;18.920;2024-01-10T11:57:33;23.40;;;10.15;;
82352;SDS011;71954;47.430;18.920;2024-01-10T12:00:00;21.20;;;9.63;;
82352;SDS011;71954;47.430;18.920;2024-01-10T12:02:29;19.95;;;10.15;;
82352;SDS011;71954;47.430;18.920;2024-01-10T12:04:56;17.80;;;8.25;;
82352;SDS011;71954;47.430;18.920;2024-01-10T12:07:23;21.42;;;9.52;;
82352;SDS011;71954;47.430;18.920;2024-01-10T12:09:51;23.83;;;10.98;;
82352;SDS011;71954;47.430;18.920;2024-01-10T12:12:18;20.88;;;9.65;;
82352;SDS011;71954;47.430;18.920;2024-01-10T12:14:45;18.85;;;9.77;;
82352;SDS011;71954;47.430;18.920;2024-01-10T12:17:13;19.85;;;9.18;;
82352;SDS011;71954;47.430;18.920;2024-01-10T12:19:40;18.42;;;9.45;;
82352;SDS011;71954;47.430;18.920;2024-01-10T12:22:07;17.38;;;9.82;;
82352;SDS011;71954;47.430;18.920;2024-01-10T12:24:42;18.55;;;9.35;;
82352;SDS011;71954;47.430;18.920;2024-01-10T12:27:11;24.27;;;9.20;;
82352;SDS011;71954;47.430;18.920;2024-01-10T12:29:38;18.55;;;9.32;;
82352;SDS011;71954;47.430;18.920;2024-01-10T12:32:05;17.83;;;9.70;;
82352;SDS011;71954;47.430;18.920;2024-01-10T12:34:33;17.40;;;8.48;;
82352;SDS011;71954;47.430;18.920;2024-01-10T12:37:04;19.67;;;8.55;;
82352;SDS011;71954;47.430;18.920;2024-01-10T12:39:31;15.88;;;8.23;;
82352;SDS011;71954;47.430;18.920;2024-01-10T12:41:58;13.88;;;7.75;;
82352;SDS011;71954;47.430;18.920;2024-01-10T12:44:31;18.73;;;8.80;;
82352;SDS011;71954;47.430;18.920;2024-01-10T12:46:58;19.88;;;7.93;;
82352;SDS011;71954;47.430;18.920;2024-01-10T12:49:26;18.38;;;8.13;;
82352;SDS011;71954;47.430;18.920;2024-01-10T12:51:53;20.15;;;8.32;;
82352;SDS011;71954;47.430;18.920;2024-01-10T12:54:20;15.00;;;7.00;;
82352;SDS011;71954;47.430;18.920;2024-01-10T12:56:47;13.80;;;7.15;;
82352;SDS011;71954;47.430;18.920;2024-01-10T12:59:13;15.93;;;7.78;;
82352;SDS011;71954;47.430;18.920;2024-01-10T13:01:40;15.68;;;7.18;;
82352;SDS011;71954;47.430;18.920;2024-01-10T13:04:08;15.10;;;7.45;;
82352;SDS011;71954;47.430;18.920;2024-01-10T13:06:36;13.23;;;6.70;;
82352;SDS011;71954;47.430;18.920;2024-01-10T13:09:02;15.77;;;6.57;;
82352;SDS011;71954;47.430;18.920;2024-01-10T13:11:29;13.63;;;6.70;;
82352;SDS011;71954;47.430;18.920;2024-01-10T13:13:56;13.32;;;6.32;;
82352;SDS011;71954;47.430;18.920;2024-01-10T13:16:23;14.45;;;6.93;;
82352;SDS011;71954;47.430;18.920;2024-01-10T13:18:50;13.75;;;7.68;;
82352;SDS011;71954;47.430;18.920;2024-01-10T13:21:19;13.98;;;6.05;;
82352;SDS011;71954;47.430;18.920;2024-01-10T13:23:46;12.35;;;6.25;;
82352;SDS011;71954;47.430;18.920;2024-01-10T13:26:13;11.57;;;5.35;;
82352;SDS011;71954;47.430;18.920;2024-01-10T13:28:41;17.73;;;7.30;;
82352;SDS011;71954;47.430;18.920;2024-01-10T13:31:08;16.75;;;6.85;;
82352;SDS011;71954;47.430;18.920;2024-01-10T13:33:36;14.27;;;6.45;;
82352;SDS011;71954;47.430;18.920;2024-01-10T13:36:12;19.85;;;6.80;;
82352;SDS011;71954;47.430;18.920;2024-01-10T13:38:39;15.23;;;7.20;;
82352;SDS011;71954;47.430;18.920;2024-01-10T13:41:05;14.90;;;6.95;;
82352;SDS011;71954;47.430;18.920;2024-01-10T13:43:32;14.43;;;7.30;;
82352;SDS011;71954;47.430;18.920;2024-01-10T13:45:59;16.52;;;7.57;;
82352;SDS011;71954;47.430;18.920;2024-01-10T13:48:31;18.00;;;7.47;;
82352;SDS011;71954;47.430;18.920;2024-01-10T13:50:58;15.10;;;7.50;;
82352;SDS011;71954;47.430;18.920;2024-01-10T13:53:25;16.63;;;8.02;;
82352;SDS011;71954;47.430;18.920;2024-01-10T13:55:51;14.68;;;7.18;;
82352;SDS011;71954;47.430;18.920;2024-01-10T13:58:18;15.98;;;7.75;;
82352;SDS011;71954;47.430;18.920;2024-01-10T14:00:45;16.27;;;7.80;;
82352;SDS011;71954;47.430;18.920;2024-01-10T14:03:13;16.45;;;8.13;;
82352;SDS011;71954;47.430;18.920;2024-01-10T14:05:40;16.60;;;7.97;;
82352;SDS011;71954;47.430;18.920;2024-01-10T14:08:07;16.60;;;7.03;;
82352;SDS011;71954;47.430;18.920;2024-01-10T14:13:01;15.48;;;6.57;;
82352;SDS011;71954;47.430;18.920;2024-01-10T14:15:30;18.30;;;7.78;;
82352;SDS011;71954;47.430;18.920;2024-01-10T14:17:56;16.52;;;6.82;;
82352;SDS011;71954;47.430;18.920;2024-01-10T14:20:24;18.05;;;8.50;;
82352;SDS011;71954;47.430;18.920;2024-01-10T14:22:51;18.38;;;8.25;;
82352;SDS011;71954;47.430;18.920;2024-01-10T14:25:18;18.33;;;7.68;;
82352;SDS011;71954;47.430;18.920;2024-01-10T14:27:45;14.80;;;7.53;;
82352;SDS011;71954;47.430;18.920;2024-01-10T14:30:12;15.65;;;7.25;;
82352;SDS011;71954;47.430;18.920;2024-01-10T14:32:40;15.85;;;8.02;;
82352;SDS011;71954;47.430;18.920;2024-01-10T14:35:07;17.30;;;7.53;;
82352;SDS011;71954;47.430;18.920;2024-01-10T14:37:34;13.45;;;7.32;;
82352;SDS011;71954;47.430;18.920;2024-01-10T14:40:03;17.45;;;8.65;;
82352;SDS011;71954;47.430;18.920;2024-01-10T14:42:30;17.25;;;8.05;;
82352;SDS011;71954;47.430;18.920;2024-01-10T14:44:59;17.42;;;8.60;;
82352;SDS011;71954;47.430;18.920;2024-01-10T14:47:27;19.33;;;8.20;;